createdAt,value
2022-10-18T00:02:12.863Z,64.50
2022-10-18T00:06:20.485Z,64.56
2022-10-18T00:10:30.374Z,64.76
2022-10-18T00:14:40.487Z,64.89
2022-10-18T00:18:49.392Z,65.15
2022-10-18T00:22:56.931Z,65.37
2022-10-18T00:27:04.724Z,65.72
2022-10-18T00:31:20.036Z,66.02
2022-10-18T00:35:27.695Z,66.18
2022-10-18T00:39:35.672Z,66.22
2022-10-18T00:43:57.450Z,66.29
2022-10-18T00:48:07.619Z,66.28
2022-10-18T00:52:18.867Z,66.34
2022-10-18T00:56:26.206Z,66.52
2022-10-18T01:00:39.175Z,66.62
2022-10-18T01:04:47.302Z,67.25
2022-10-18T01:09:04.976Z,67.59
2022-10-18T01:13:26.016Z,67.80
2022-10-18T01:17:42.284Z,67.96
2022-10-18T01:21:55.227Z,68.06
2022-10-18T01:26:10.668Z,68.32
2022-10-18T01:30:37.708Z,68.42
2022-10-18T01:34:47.630Z,69.01
2022-10-18T01:38:57.589Z,69.28
2022-10-18T01:47:16.453Z,69.26
2022-10-18T01:51:27.513Z,69.79
2022-10-18T01:55:42.691Z,69.86
2022-10-18T01:59:56.552Z,70.22
2022-10-18T02:04:09.554Z,70.46
2022-10-18T02:08:23.520Z,70.49
2022-10-18T02:12:32.589Z,70.69
2022-10-18T02:16:43.196Z,70.60
2022-10-18T02:20:52.026Z,70.74
2022-10-18T02:25:01.687Z,70.82
2022-10-18T02:29:09.548Z,70.90
2022-10-18T02:33:22.813Z,71.38
2022-10-18T02:37:35.480Z,72.14
2022-10-18T02:41:44.231Z,72.36
2022-10-18T02:45:51.726Z,72.92
2022-10-18T02:49:59.109Z,73.16
2022-10-18T02:54:08.719Z,72.96
2022-10-18T02:58:16.262Z,73.12
2022-10-18T03:02:23.793Z,72.95
2022-10-18T03:06:31.914Z,73.32
2022-10-18T03:10:39.811Z,73.61
2022-10-18T03:14:47.373Z,73.52
2022-10-18T03:18:54.695Z,73.86
2022-10-18T03:23:02.495Z,74.20
2022-10-18T03:27:10.250Z,74.18
2022-10-18T03:31:18.237Z,74.06
2022-10-18T03:35:26.452Z,74.24
2022-10-18T03:39:34.279Z,74.37
2022-10-18T03:43:42.807Z,74.61
2022-10-18T03:47:50.943Z,74.76
2022-10-18T03:51:58.441Z,74.96
2022-10-18T03:56:08.346Z,75.18
2022-10-18T04:00:17.179Z,75.04
2022-10-18T04:04:25.197Z,74.98
2022-10-18T04:08:32.854Z,75.03
2022-10-18T04:12:40.516Z,75.15
2022-10-18T04:16:48.034Z,75.11
2022-10-18T04:20:56.249Z,75.26
2022-10-18T04:25:03.993Z,75.39
2022-10-18T04:29:12.204Z,75.45
2022-10-18T04:33:20.120Z,75.90
2022-10-18T04:37:29.268Z,75.90
2022-10-18T04:41:37.260Z,76.64
2022-10-18T04:45:48.301Z,76.81
2022-10-18T04:49:56.315Z,76.79
2022-10-18T04:54:03.812Z,76.85
2022-10-18T04:58:12.138Z,76.63
2022-10-18T05:02:20.145Z,76.85
2022-10-18T05:06:27.481Z,76.85
2022-10-18T05:10:34.738Z,76.61
2022-10-18T05:14:42.002Z,76.74
2022-10-18T05:18:50.461Z,76.83
2022-10-18T05:23:00.033Z,76.87
2022-10-18T05:27:08.101Z,76.87
2022-10-18T05:31:15.479Z,76.80
2022-10-18T05:35:22.664Z,76.84
2022-10-18T05:39:30.781Z,77.01
2022-10-18T05:43:39.202Z,77.48
2022-10-18T05:47:46.828Z,77.37
2022-10-18T05:51:55.308Z,77.38
2022-10-18T05:56:05.793Z,77.43
2022-10-18T06:00:16.177Z,77.64
2022-10-18T06:04:23.945Z,77.92
2022-10-18T06:08:31.936Z,78.03
2022-10-18T06:12:39.601Z,78.23
2022-10-18T06:16:47.340Z,78.26
2022-10-18T06:20:59.925Z,78.33
2022-10-18T06:25:09.636Z,78.25
2022-10-18T06:29:17.756Z,78.04
2022-10-18T06:33:25.930Z,77.86
2022-10-18T06:37:35.631Z,77.76
2022-10-18T06:41:43.429Z,77.62
2022-10-18T06:45:51.707Z,77.25
2022-10-18T06:50:01.805Z,77.18
2022-10-18T06:54:18.157Z,77.18
2022-10-18T06:58:26.598Z,77.26
2022-10-18T07:02:35.006Z,76.82
2022-10-18T07:06:42.848Z,76.38
2022-10-18T07:10:56.007Z,75.97
2022-10-18T07:15:08.271Z,75.50
2022-10-18T07:19:17.906Z,74.96
2022-10-18T07:23:25.633Z,74.70
2022-10-18T07:27:33.979Z,74.26
2022-10-18T07:31:42.516Z,73.73
2022-10-18T07:35:50.385Z,73.38
2022-10-18T07:39:58.933Z,72.78
2022-10-18T07:44:07.770Z,72.86
2022-10-18T07:48:17.114Z,72.13
2022-10-18T07:52:25.225Z,71.68
2022-10-18T07:56:33.263Z,71.21
2022-10-18T08:00:40.905Z,70.83
2022-10-18T08:04:49.504Z,70.75
2022-10-18T08:08:57.121Z,70.25
2022-10-18T08:13:04.676Z,70.02
2022-10-18T08:17:12.713Z,69.77
2022-10-18T08:21:21.990Z,69.41
2022-10-18T08:25:29.765Z,69.00
2022-10-18T08:29:38.059Z,68.41
2022-10-18T08:33:46.608Z,68.17
2022-10-18T08:37:54.782Z,67.73
2022-10-18T08:42:21.759Z,67.61
2022-10-18T08:46:30.487Z,67.39
2022-10-18T08:50:41.522Z,67.26
2022-10-18T08:55:02.494Z,66.69
2022-10-18T08:59:12.267Z,66.55
2022-10-18T09:03:28.174Z,66.46
2022-10-18T09:08:00.901Z,66.11
2022-10-18T09:12:22.541Z,65.76
2022-10-18T09:16:38.624Z,65.85
2022-10-18T09:20:54.314Z,65.70
2022-10-18T09:25:07.840Z,65.53
2022-10-18T09:29:34.879Z,65.61
2022-10-18T09:33:52.570Z,65.76
2022-10-18T09:38:04.178Z,65.85
2022-10-18T09:42:18.180Z,65.43
2022-10-18T09:46:29.359Z,65.15
2022-10-18T09:50:40.681Z,64.50
2022-10-18T09:54:54.124Z,64.00
2022-10-18T09:59:05.157Z,63.49
2022-10-18T10:03:16.054Z,63.17
2022-10-18T10:07:25.792Z,63.16
2022-10-18T10:11:37.973Z,63.11
2022-10-18T10:15:50.459Z,62.95
2022-10-18T10:20:00.777Z,62.85
2022-10-18T10:24:09.143Z,62.55
2022-10-18T10:28:20.414Z,62.60
2022-10-18T10:32:31.033Z,61.77
2022-10-18T10:36:50.642Z,61.69
2022-10-18T10:40:59.486Z,60.96
2022-10-18T10:45:07.615Z,61.17
2022-10-18T10:49:39.280Z,60.83
2022-10-18T10:53:52.953Z,60.81
2022-10-18T10:58:00.793Z,60.91
2022-10-18T11:02:32.262Z,60.81
2022-10-18T11:06:55.175Z,60.57
2022-10-18T11:11:11.047Z,60.24
2022-10-18T11:15:25.226Z,60.46
2022-10-18T11:19:41.904Z,59.34
2022-10-18T11:23:49.973Z,59.07
2022-10-18T11:28:01.199Z,58.49
2022-10-18T11:32:15.611Z,58.05
2022-10-18T11:36:31.225Z,58.22
2022-10-18T11:40:49.715Z,57.74
2022-10-18T11:45:08.935Z,57.39
2022-10-18T11:49:24.371Z,56.59
2022-10-18T11:53:37.011Z,55.94
2022-10-18T11:57:56.315Z,55.54
2022-10-18T12:02:21.659Z,55.61
2022-10-18T12:06:32.141Z,55.79
2022-10-18T12:10:59.971Z,55.26
2022-10-18T12:15:17.946Z,55.52
2022-10-18T12:19:29.610Z,55.83
2022-10-18T12:23:44.486Z,56.00
2022-10-18T12:27:58.494Z,55.96
2022-10-18T12:32:09.799Z,56.06
2022-10-18T12:36:44.441Z,55.77
2022-10-18T12:40:54.428Z,55.80
2022-10-18T12:45:06.737Z,56.19
2022-10-18T12:49:19.403Z,56.27
2022-10-18T12:53:29.933Z,56.86
2022-10-18T12:58:12.784Z,56.98
2022-10-18T13:02:40.565Z,57.02
2022-10-18T13:07:23.951Z,56.78
2022-10-18T13:11:36.195Z,56.69
2022-10-18T13:15:47.538Z,56.21
2022-10-18T13:20:24.923Z,56.22
2022-10-18T13:24:34.649Z,56.03
2022-10-18T13:28:48.004Z,56.03
2022-10-18T13:33:01.141Z,56.00
2022-10-18T13:37:20.563Z,55.68
2022-10-18T13:41:32.789Z,55.92
2022-10-18T13:45:57.470Z,56.17
2022-10-18T13:50:32.746Z,56.41
2022-10-18T13:54:55.140Z,56.67
2022-10-18T13:59:23.141Z,57.03
2022-10-18T14:03:58.716Z,57.97
2022-10-18T14:08:12.145Z,58.75
2022-10-18T14:12:33.132Z,61.84
2022-10-18T14:16:45.168Z,65.68
2022-10-18T14:21:12.813Z,67.98
2022-10-18T14:25:27.374Z,69.34
2022-10-18T14:29:34.792Z,70.83
2022-10-18T14:33:44.728Z,72.81
2022-10-18T14:37:54.060Z,74.24
2022-10-18T14:42:03.211Z,76.24
2022-10-18T14:46:20.764Z,77.63
2022-10-18T14:50:30.946Z,78.53
2022-10-18T14:54:40.357Z,78.86
2022-10-18T14:58:48.905Z,79.61
2022-10-18T15:02:56.856Z,80.04
2022-10-18T15:07:06.865Z,79.99
2022-10-18T15:11:17.443Z,80.58
2022-10-18T15:15:29.990Z,80.88
2022-10-18T15:19:42.017Z,81.23
2022-10-18T15:23:50.328Z,81.52
2022-10-18T15:27:59.935Z,81.72
2022-10-18T15:32:20.752Z,81.66
2022-10-18T15:36:33.398Z,81.66
2022-10-18T15:40:44.345Z,81.34
2022-10-18T15:44:53.146Z,81.60
2022-10-18T15:49:20.004Z,81.53
2022-10-18T15:53:42.697Z,81.20
2022-10-18T15:57:50.594Z,81.09
2022-10-18T16:01:58.575Z,80.80
2022-10-18T16:06:12.348Z,80.55
2022-10-18T16:10:23.575Z,80.61
2022-10-18T16:14:32.187Z,80.56
2022-10-18T16:18:40.611Z,80.61
2022-10-18T16:22:48.529Z,80.52
2022-10-18T16:26:56.331Z,80.31
2022-10-18T16:31:05.396Z,80.28
2022-10-18T16:35:13.981Z,80.46
2022-10-18T16:39:24.231Z,80.69
2022-10-18T16:43:31.988Z,80.90
2022-10-18T16:47:40.353Z,80.97
2022-10-18T16:51:47.868Z,80.76
2022-10-18T16:55:58.245Z,80.75
2022-10-18T17:00:07.223Z,81.01
2022-10-18T17:04:15.896Z,81.19
2022-10-18T17:08:25.536Z,81.06
2022-10-18T17:12:33.712Z,81.58
2022-10-18T17:16:43.568Z,81.77
2022-10-18T17:20:54.591Z,81.79
2022-10-18T17:25:02.473Z,81.81
2022-10-18T17:29:10.743Z,82.11
2022-10-18T17:33:19.815Z,82.18
2022-10-18T17:37:28.435Z,82.30
2022-10-18T17:41:37.393Z,82.47
2022-10-18T17:45:51.254Z,82.38
2022-10-18T17:49:59.631Z,82.35
2022-10-18T17:54:08.216Z,82.16
2022-10-18T17:58:18.860Z,82.61
2022-10-18T18:02:26.869Z,82.70
2022-10-18T18:06:36.180Z,83.02
2022-10-18T18:10:44.720Z,83.02
2022-10-18T18:14:53.343Z,83.19
2022-10-18T18:19:04.079Z,83.41
2022-10-18T18:23:13.900Z,83.22
2022-10-18T18:27:21.840Z,83.39
2022-10-18T18:31:34.340Z,83.45
2022-10-18T18:35:46.677Z,83.52
2022-10-18T18:39:54.776Z,83.49
2022-10-18T18:44:04.713Z,83.37
2022-10-18T18:48:16.339Z,83.33
2022-10-18T18:52:27.697Z,83.34
2022-10-18T18:56:37.029Z,83.50
2022-10-18T19:00:45.780Z,83.42
2022-10-18T19:04:53.943Z,83.63
2022-10-18T19:09:03.520Z,83.76
2022-10-18T19:13:12.019Z,83.90
2022-10-18T19:17:19.776Z,83.93
2022-10-18T19:21:28.583Z,83.92
2022-10-18T19:25:36.781Z,83.68
2022-10-18T19:29:46.401Z,83.76
2022-10-18T19:33:59.739Z,83.85
2022-10-18T19:38:08.130Z,83.73
2022-10-18T19:42:20.495Z,83.82
2022-10-18T19:46:33.002Z,83.86
2022-10-18T19:50:41.400Z,83.78
2022-10-18T19:54:51.552Z,83.76
2022-10-18T19:58:59.864Z,83.71
2022-10-18T20:03:08.858Z,83.65
2022-10-18T20:07:16.689Z,83.49
2022-10-18T20:11:26.655Z,83.46
2022-10-18T20:15:34.467Z,83.22
2022-10-18T20:19:42.206Z,83.27
2022-10-18T20:23:50.285Z,83.25
2022-10-18T20:27:59.281Z,83.10
2022-10-18T20:32:09.715Z,83.19
2022-10-18T20:36:19.236Z,82.98
2022-10-18T20:40:27.160Z,82.93
2022-10-18T20:44:36.567Z,82.92
2022-10-18T20:48:45.323Z,83.10
2022-10-18T20:52:54.490Z,83.36
2022-10-18T20:57:02.842Z,83.32
2022-10-18T21:01:12.733Z,83.35
2022-10-18T21:05:20.831Z,83.44
2022-10-18T21:09:29.061Z,83.24
2022-10-18T21:13:36.868Z,83.36
2022-10-18T21:17:44.954Z,83.47
2022-10-18T21:21:55.139Z,83.41
2022-10-18T21:26:02.977Z,83.43
2022-10-18T21:34:25.288Z,83.58
2022-10-18T21:38:34.122Z,83.50
2022-10-18T21:42:41.698Z,83.81
2022-10-18T21:46:49.634Z,83.71
2022-10-18T21:50:57.461Z,83.72
2022-10-18T21:55:07.349Z,83.75
2022-10-18T21:59:17.501Z,83.71
2022-10-18T22:03:25.519Z,83.70
2022-10-18T22:07:34.780Z,83.72
2022-10-18T22:11:46.859Z,83.72
2022-10-18T22:15:55.727Z,83.79
2022-10-18T22:20:04.198Z,83.83
2022-10-18T22:24:13.133Z,84.04
2022-10-18T22:28:21.351Z,83.86
2022-10-18T22:32:29.408Z,84.13
2022-10-18T22:36:37.627Z,84.00
2022-10-18T22:40:45.689Z,84.22
2022-10-18T22:44:53.812Z,84.23
2022-10-18T22:49:01.597Z,84.20
2022-10-18T22:53:09.079Z,84.05
2022-10-18T22:57:17.312Z,83.99
2022-10-18T23:01:26.545Z,84.00
2022-10-18T23:05:40.067Z,84.14
2022-10-18T23:09:47.989Z,84.09
2022-10-18T23:13:56.151Z,84.22
2022-10-18T23:18:05.001Z,84.59
2022-10-18T23:22:15.337Z,84.69
2022-10-18T23:26:25.234Z,84.48
2022-10-18T23:30:33.010Z,84.48
2022-10-18T23:34:40.962Z,84.38
2022-10-18T23:38:48.738Z,84.53
2022-10-18T23:42:56.283Z,84.36
2022-10-18T23:47:03.800Z,84.23
2022-10-18T23:51:12.237Z,84.21
2022-10-18T23:55:20.866Z,84.12
2022-10-18T23:59:29.403Z,83.85
